createdAt,value
2022-08-03T00:02:21.342Z,101214.22
2022-08-03T00:04:49.632Z,101213.69
2022-08-03T00:07:18.393Z,101215.50
2022-08-03T00:09:46.916Z,101223.88
2022-08-03T00:12:15.387Z,101231.38
2022-08-03T00:14:44.049Z,101226.94
2022-08-03T00:17:12.742Z,101233.03
2022-08-03T00:19:41.071Z,101229.47
2022-08-03T00:22:09.420Z,101231.81
2022-08-03T00:24:37.863Z,101229.53
2022-08-03T00:27:06.466Z,101232.50
2022-08-03T00:29:59.980Z,101231.22
2022-08-03T00:32:24.041Z,101227.50
2022-08-03T00:34:57.797Z,101232.50
2022-08-03T00:37:41.301Z,101236.94
2022-08-03T00:40:16.426Z,101227.22
2022-08-03T00:42:55.906Z,101222.75
2022-08-03T00:45:29.315Z,101221.47
2022-08-03T00:47:58.667Z,101227.94
2022-08-03T00:50:28.901Z,101238.22
2022-08-03T00:53:00.269Z,101240.38
2022-08-03T00:55:29.070Z,101239.75
2022-08-03T00:57:59.006Z,101233.72
2022-08-03T01:00:29.229Z,101238.31
2022-08-03T01:02:58.059Z,101235.84
2022-08-03T01:05:27.146Z,101242.56
2022-08-03T01:08:07.304Z,101246.41
2022-08-03T01:10:42.346Z,101259.94
2022-08-03T01:14:01.583Z,101252.00
2022-08-03T01:16:21.062Z,101255.19
2022-08-03T01:19:15.551Z,101258.13
2022-08-03T01:22:19.454Z,101257.06
2022-08-03T01:24:59.307Z,101260.97
2022-08-03T01:27:44.717Z,101264.47
2022-08-03T01:30:14.322Z,101258.63
2022-08-03T01:33:02.119Z,101254.88
2022-08-03T01:35:44.272Z,101248.50
2022-08-03T01:38:23.900Z,101256.03
2022-08-03T01:40:58.662Z,101263.81
2022-08-03T01:44:26.681Z,101259.16
2022-08-03T01:46:21.701Z,101255.47
2022-08-03T01:48:51.405Z,101251.81
2022-08-03T01:51:22.441Z,101266.59
2022-08-03T01:53:53.343Z,101266.34
2022-08-03T01:56:26.101Z,101274.50
2022-08-03T01:58:56.626Z,101267.59
2022-08-03T02:02:28.635Z,101277.16
2022-08-03T02:04:19.562Z,101273.91
2022-08-03T02:07:00.579Z,101280.53
2022-08-03T02:09:33.786Z,101291.50
2022-08-03T02:12:02.953Z,101294.81
2022-08-03T02:14:32.435Z,101295.97
2022-08-03T02:17:01.831Z,101289.00
2022-08-03T02:19:35.714Z,101288.22
2022-08-03T02:22:06.506Z,101299.03
2022-08-03T02:24:34.976Z,101296.94
2022-08-03T02:27:07.141Z,101299.25
2022-08-03T02:29:41.159Z,101295.34
2022-08-03T02:32:18.678Z,101299.03
2022-08-03T02:34:51.819Z,101294.31
2022-08-03T02:37:22.530Z,101311.38
2022-08-03T02:39:54.270Z,101307.53
2022-08-03T02:42:24.727Z,101299.50
2022-08-03T02:44:56.900Z,101302.53
2022-08-03T02:47:28.437Z,101298.84
2022-08-03T02:50:19.200Z,101316.56
2022-08-03T02:52:49.706Z,101321.00
2022-08-03T02:55:21.061Z,101321.13
2022-08-03T02:57:50.181Z,101329.69
2022-08-03T03:00:27.687Z,101321.38
2022-08-03T03:03:00.721Z,101322.13
2022-08-03T03:05:56.152Z,101323.06
2022-08-03T03:08:26.163Z,101327.91
2022-08-03T03:11:00.742Z,101328.09
2022-08-03T03:13:31.400Z,101335.56
2022-08-03T03:16:03.841Z,101332.06
2022-08-03T03:18:37.063Z,101330.25
2022-08-03T03:21:06.296Z,101335.63
2022-08-03T03:23:40.581Z,101335.63
2022-08-03T03:26:09.227Z,101336.72
2022-08-03T03:28:38.346Z,101343.41
2022-08-03T03:31:08.741Z,101341.69
2022-08-03T03:33:38.340Z,101338.44
2022-08-03T03:36:09.804Z,101343.25
2022-08-03T03:38:38.345Z,101342.69
2022-08-03T03:41:07.271Z,101332.09
2022-08-03T03:43:36.099Z,101334.22
2022-08-03T03:46:05.104Z,101340.69
2022-08-03T03:48:34.341Z,101346.78
2022-08-03T03:51:04.020Z,101340.69
2022-08-03T03:53:32.579Z,101340.88
2022-08-03T03:56:02.451Z,101339.06
2022-08-03T03:58:33.381Z,101342.81
2022-08-03T04:01:02.540Z,101339.28
2022-08-03T04:03:31.460Z,101342.16
2022-08-03T04:06:18.027Z,101345.81
2022-08-03T04:09:05.379Z,101346.00
2022-08-03T04:11:40.584Z,101351.56
2022-08-03T04:14:16.078Z,101357.94
2022-08-03T04:16:50.155Z,101359.66
2022-08-03T04:19:39.789Z,101360.63
2022-08-03T04:22:12.581Z,101365.81
2022-08-03T04:24:49.381Z,101363.41
2022-08-03T04:27:26.662Z,101363.59
2022-08-03T04:29:58.025Z,101367.38
2022-08-03T04:32:29.708Z,101373.03
2022-08-03T04:34:58.175Z,101370.13
2022-08-03T04:37:32.260Z,101369.19
2022-08-03T04:40:05.145Z,101374.47
2022-08-03T04:42:35.074Z,101377.06
2022-08-03T04:45:04.911Z,101375.16
2022-08-03T04:47:35.465Z,101380.44
2022-08-03T04:50:07.150Z,101382.16
2022-08-03T04:52:38.982Z,101383.03
2022-08-03T04:55:08.105Z,101377.84
2022-08-03T04:57:36.425Z,101377.94
2022-08-03T05:00:06.871Z,101386.00
2022-08-03T05:02:35.971Z,101382.56
2022-08-03T05:05:05.221Z,101372.75
2022-08-03T05:07:35.862Z,101381.03
2022-08-03T05:10:15.706Z,101379.28
2022-08-03T05:12:46.507Z,101372.25
2022-08-03T05:15:15.304Z,101369.66
2022-08-03T05:17:43.780Z,101377.94
2022-08-03T05:20:13.027Z,101376.03
2022-08-03T05:22:41.650Z,101373.50
2022-08-03T05:25:10.342Z,101384.53
2022-08-03T05:27:47.675Z,101379.09
2022-08-03T05:30:29.663Z,101376.41
2022-08-03T05:33:02.747Z,101374.66
2022-08-03T05:36:01.933Z,101377.34
2022-08-03T05:38:23.950Z,101381.25
2022-08-03T05:41:22.260Z,101380.41
2022-08-03T05:43:47.059Z,101379.72
2022-08-03T05:46:15.440Z,101381.06
2022-08-03T05:48:44.330Z,101377.56
2022-08-03T05:51:12.900Z,101373.34
2022-08-03T05:53:42.972Z,101374.31
2022-08-03T05:56:16.024Z,101370.97
2022-08-03T05:58:48.451Z,101370.16
2022-08-03T06:01:18.061Z,101376.50
2022-08-03T06:03:47.495Z,101381.03
2022-08-03T06:06:16.106Z,101377.47
2022-08-03T06:08:45.278Z,101373.03
2022-08-03T06:11:14.505Z,101369.75
2022-08-03T06:13:43.611Z,101367.16
2022-08-03T06:16:12.337Z,101367.28
2022-08-03T06:18:41.355Z,101379.88
2022-08-03T06:21:14.860Z,101375.50
2022-08-03T06:23:54.157Z,101377.44
2022-08-03T06:26:25.621Z,101380.13
2022-08-03T06:28:54.683Z,101370.41
2022-08-03T06:31:32.268Z,101374.94
2022-08-03T06:34:32.657Z,101373.38
2022-08-03T06:36:52.970Z,101375.19
2022-08-03T06:39:23.227Z,101370.84
2022-08-03T06:41:52.743Z,101362.88
2022-08-03T06:44:21.153Z,101361.25
2022-08-03T06:46:49.430Z,101365.84
2022-08-03T06:49:17.723Z,101366.06
2022-08-03T06:52:05.527Z,101369.50
2022-08-03T06:54:34.597Z,101369.50
2022-08-03T06:57:02.891Z,101373.16
2022-08-03T07:00:10.769Z,101377.94
2022-08-03T07:02:20.506Z,101380.03
2022-08-03T07:04:49.818Z,101370.22
2022-08-03T07:07:18.821Z,101384.63
2022-08-03T07:09:55.706Z,101388.97
2022-08-03T07:12:27.468Z,101389.31
2022-08-03T07:15:00.414Z,101380.47
2022-08-03T07:17:31.942Z,101385.13
2022-08-03T07:20:01.003Z,101385.50
2022-08-03T07:22:29.617Z,101378.38
2022-08-03T07:24:58.181Z,101391.91
2022-08-03T07:27:32.872Z,101389.47
2022-08-03T07:30:01.861Z,101385.41
2022-08-03T07:32:32.341Z,101390.19
2022-08-03T07:35:01.531Z,101395.22
2022-08-03T07:37:31.873Z,101396.25
2022-08-03T07:40:01.162Z,101392.63
2022-08-03T07:42:30.802Z,101392.78
2022-08-03T07:45:00.745Z,101390.38
2022-08-03T07:47:35.105Z,101391.56
2022-08-03T07:50:08.576Z,101389.66
2022-08-03T07:52:49.227Z,101389.41
2022-08-03T07:55:22.743Z,101387.41
2022-08-03T07:58:13.146Z,101380.84
2022-08-03T08:00:42.002Z,101389.22
2022-08-03T08:03:10.982Z,101385.66
2022-08-03T08:05:39.625Z,101383.06
2022-08-03T08:08:08.701Z,101379.44
2022-08-03T08:10:37.862Z,101380.13
2022-08-03T08:13:06.660Z,101378.91
2022-08-03T08:15:35.150Z,101377.94
2022-08-03T08:18:11.142Z,101371.03
2022-08-03T08:20:40.115Z,101367.56
2022-08-03T08:23:37.701Z,101368.50
2022-08-03T08:25:59.390Z,101363.13
2022-08-03T08:28:32.235Z,101356.81
2022-08-03T08:31:02.741Z,101353.25
2022-08-03T08:34:02.658Z,101347.03
2022-08-03T08:36:19.941Z,101351.69
2022-08-03T08:38:48.392Z,101345.72
2022-08-03T08:41:16.899Z,101349.25
2022-08-03T08:43:45.341Z,101338.63
2022-08-03T08:46:23.515Z,101341.41
2022-08-03T08:48:53.895Z,101336.09
2022-08-03T08:51:23.525Z,101339.63
2022-08-03T08:54:14.661Z,101338.72
2022-08-03T08:56:44.261Z,101337.91
2022-08-03T08:59:12.977Z,101337.13
2022-08-03T09:01:41.380Z,101334.53
2022-08-03T09:04:10.418Z,101325.69
2022-08-03T09:06:38.820Z,101324.75
2022-08-03T09:09:09.305Z,101324.84
2022-08-03T09:12:13.745Z,101330.38
2022-08-03T09:15:07.295Z,101327.16
2022-08-03T09:17:42.582Z,101328.25
2022-08-03T09:20:11.432Z,101320.44
2022-08-03T09:23:01.220Z,101329.00
2022-08-03T09:25:37.670Z,101328.22
2022-08-03T09:28:13.382Z,101328.22
2022-08-03T09:31:01.866Z,101316.59
2022-08-03T09:33:36.041Z,101320.34
2022-08-03T09:36:05.233Z,101318.75
2022-08-03T09:38:33.614Z,101320.50
2022-08-03T09:41:02.020Z,101326.81
2022-08-03T09:43:46.982Z,101328.72
2022-08-03T09:46:15.196Z,101334.41
2022-08-03T09:48:43.410Z,101339.78
2022-08-03T09:51:33.358Z,101331.66
2022-08-03T09:54:07.589Z,101325.69
2022-08-03T09:56:44.104Z,101331.09
2022-08-03T09:59:15.466Z,101320.38
2022-08-03T10:01:43.787Z,101324.16
2022-08-03T10:04:18.113Z,101315.19
2022-08-03T10:06:48.107Z,101321.66
2022-08-03T10:09:17.860Z,101326.47
2022-08-03T10:11:48.100Z,101330.97
2022-08-03T10:14:23.463Z,101322.88
2022-08-03T10:16:52.102Z,101320.19
2022-08-03T10:19:20.680Z,101316.69
2022-08-03T10:21:56.700Z,101317.56
2022-08-03T10:24:30.909Z,101316.59
2022-08-03T10:27:08.360Z,101313.91
2022-08-03T10:29:40.101Z,101303.53
2022-08-03T10:32:17.060Z,101315.38
2022-08-03T10:34:46.824Z,101303.16
2022-08-03T10:37:17.477Z,101298.75
2022-08-03T10:39:55.681Z,101311.53
2022-08-03T10:42:28.109Z,101309.72
2022-08-03T10:45:04.578Z,101312.31
2022-08-03T10:47:34.499Z,101307.28
2022-08-03T10:50:04.256Z,101311.06
2022-08-03T10:52:38.246Z,101309.56
2022-08-03T10:55:52.657Z,101319.63
2022-08-03T10:58:56.844Z,101314.41
2022-08-03T11:01:58.081Z,101314.59
2022-08-03T11:04:30.742Z,101317.34
2022-08-03T11:07:23.951Z,101316.06
2022-08-03T11:09:57.865Z,101316.94
2022-08-03T11:12:34.826Z,101315.22
2022-08-03T11:15:12.015Z,101305.50
2022-08-03T11:17:46.407Z,101301.31
2022-08-03T11:20:45.652Z,101302.41
2022-08-03T11:23:14.581Z,101298.97
2022-08-03T11:26:18.495Z,101292.00
2022-08-03T11:28:48.895Z,101293.75
2022-08-03T11:34:17.185Z,101282.56
2022-08-03T11:37:21.446Z,101277.13
2022-08-03T11:39:52.828Z,101279.06
2022-08-03T11:42:24.270Z,101284.66
2022-08-03T11:44:56.970Z,101283.72
2022-08-03T11:47:30.500Z,101277.50
2022-08-03T11:50:02.908Z,101276.41
2022-08-03T11:52:40.099Z,101273.47
2022-08-03T11:55:14.175Z,101269.00
2022-08-03T11:59:03.379Z,101273.56
2022-08-03T12:00:33.480Z,101283.34
2022-08-03T12:03:03.384Z,101280.66
2022-08-03T12:05:40.262Z,101283.25
2022-08-03T12:08:13.697Z,101279.66
2022-08-03T12:10:51.450Z,101284.94
2022-08-03T12:14:08.809Z,101280.34
2022-08-03T12:16:10.212Z,101286.75
2022-08-03T12:18:38.790Z,101284.84
2022-08-03T12:21:12.290Z,101285.69
2022-08-03T12:23:41.296Z,101281.06
2022-08-03T12:26:11.316Z,101290.91
2022-08-03T12:28:49.786Z,101284.56
2022-08-03T12:31:18.627Z,101287.22
2022-08-03T12:33:59.041Z,101293.44
2022-08-03T12:36:29.537Z,101295.97
2022-08-03T12:39:06.495Z,101296.81
2022-08-03T12:41:39.775Z,101298.63
2022-08-03T12:44:10.020Z,101294.22
2022-08-03T12:46:45.332Z,101302.28
2022-08-03T12:49:19.857Z,101301.50
2022-08-03T12:51:48.255Z,101296.28
2022-08-03T12:54:24.422Z,101294.69
2022-08-03T12:57:08.055Z,101292.97
2022-08-03T12:59:45.191Z,101288.59
2022-08-03T13:02:25.578Z,101300.22
2022-08-03T13:04:56.010Z,101307.31
2022-08-03T13:07:24.455Z,101305.50
2022-08-03T13:09:58.956Z,101310.00
2022-08-03T13:12:28.396Z,101305.66
2022-08-03T13:14:59.278Z,101310.13
2022-08-03T13:17:29.046Z,101311.09
2022-08-03T13:19:57.726Z,101313.63
2022-08-03T13:22:29.996Z,101326.22
2022-08-03T13:24:59.277Z,101323.69
2022-08-03T13:28:04.014Z,101325.56
2022-08-03T13:30:29.942Z,101334.84
2022-08-03T13:33:01.110Z,101335.88
2022-08-03T13:35:29.682Z,101340.47
2022-08-03T13:37:58.117Z,101335.88
2022-08-03T13:40:30.789Z,101336.66
2022-08-03T13:43:04.075Z,101331.31
2022-08-03T13:45:32.541Z,101341.16
2022-08-03T13:48:00.876Z,101341.09
2022-08-03T13:50:29.401Z,101336.53
2022-08-03T13:52:58.319Z,101344.47
2022-08-03T13:55:27.761Z,101340.88
2022-08-03T13:58:03.181Z,101332.66
2022-08-03T14:00:35.756Z,101336.16
2022-08-03T14:03:12.812Z,101338.75
2022-08-03T14:05:43.724Z,101340.25
2022-08-03T14:08:13.673Z,101340.03
2022-08-03T14:10:44.534Z,101336.38
2022-08-03T14:13:17.978Z,101334.44
2022-08-03T14:15:51.346Z,101335.06
2022-08-03T14:18:29.207Z,101332.16
2022-08-03T14:21:06.938Z,101332.88
2022-08-03T14:23:38.390Z,101344.16
2022-08-03T14:26:07.772Z,101348.41
2022-08-03T14:28:37.206Z,101341.22
2022-08-03T14:31:08.509Z,101332.22
2022-08-03T14:33:43.866Z,101342.91
2022-08-03T14:36:12.326Z,101342.69
2022-08-03T14:38:40.718Z,101339.84
2022-08-03T14:41:11.981Z,101349.56
2022-08-03T14:43:40.961Z,101350.97
2022-08-03T14:46:29.476Z,101354.13
2022-08-03T14:50:28.572Z,101359.00
2022-08-03T14:51:51.646Z,101355.84
2022-08-03T14:54:23.053Z,101353.53
2022-08-03T14:56:51.563Z,101348.63
2022-08-03T14:59:19.833Z,101357.13
2022-08-03T15:02:06.400Z,101354.13
2022-08-03T15:04:36.081Z,101351.97
2022-08-03T15:07:04.722Z,101358.59
2022-08-03T15:09:33.205Z,101356.25
2022-08-03T15:12:01.774Z,101357.56
2022-08-03T15:14:33.245Z,101358.03
2022-08-03T15:17:03.374Z,101356.94
2022-08-03T15:20:01.241Z,101361.34
2022-08-03T15:22:20.776Z,101359.44
2022-08-03T15:24:54.643Z,101359.13
2022-08-03T15:27:23.429Z,101356.25
2022-08-03T15:30:07.716Z,101348.19
2022-08-03T15:32:38.316Z,101347.19
2022-08-03T15:35:07.454Z,101354.03
2022-08-03T15:37:35.916Z,101349.25
2022-08-03T15:40:04.815Z,101344.34
2022-08-03T15:42:34.719Z,101348.22
2022-08-03T15:45:03.597Z,101340.94
2022-08-03T15:47:31.917Z,101341.38
2022-08-03T15:50:04.300Z,101338.31
2022-08-03T15:52:34.877Z,101332.41
2022-08-03T15:55:03.276Z,101326.50
2022-08-03T15:57:31.596Z,101321.81
2022-08-03T15:59:59.881Z,101313.47
2022-08-03T16:02:28.557Z,101312.38
2022-08-03T16:04:56.967Z,101320.00
2022-08-03T16:08:02.904Z,101314.16
2022-08-03T16:10:31.851Z,101310.22
2022-08-03T16:13:01.127Z,101300.16
2022-08-03T16:15:29.672Z,101300.56
2022-08-03T16:17:57.998Z,101302.56
2022-08-03T16:20:31.496Z,101300.19
2022-08-03T16:23:10.621Z,101295.00
2022-08-03T16:25:41.519Z,101300.19
2022-08-03T16:28:14.394Z,101298.75
2022-08-03T16:30:46.274Z,101289.53
2022-08-03T16:33:17.451Z,101290.03
2022-08-03T16:35:47.916Z,101279.44
2022-08-03T16:38:19.176Z,101279.63
2022-08-03T16:40:52.652Z,101274.50
2022-08-03T16:43:27.199Z,101276.59
2022-08-03T16:45:55.916Z,101276.84
2022-08-03T16:48:24.166Z,101275.03
2022-08-03T16:50:52.564Z,101269.22
2022-08-03T16:53:33.657Z,101265.81
2022-08-03T16:56:11.187Z,101265.03
2022-08-03T16:58:42.342Z,101262.47
2022-08-03T17:01:22.334Z,101254.31
2022-08-03T17:04:03.025Z,101258.84
2022-08-03T17:06:37.932Z,101254.22
2022-08-03T17:09:20.810Z,101247.44
2022-08-03T17:11:52.402Z,101243.66
2022-08-03T17:14:28.325Z,101247.13
2022-08-03T17:17:04.044Z,101239.16
2022-08-03T17:19:33.497Z,101234.72
2022-08-03T17:22:09.921Z,101238.25
2022-08-03T17:24:46.341Z,101233.81
2022-08-03T17:28:48.177Z,101237.56
2022-08-03T17:30:16.716Z,101236.91
2022-08-03T17:32:56.665Z,101225.94
2022-08-03T17:35:34.202Z,101230.44
2022-08-03T17:38:06.598Z,101229.66
2022-08-03T17:40:37.997Z,101222.72
2022-08-03T17:44:13.973Z,101216.69
2022-08-03T17:46:15.281Z,101217.13
2022-08-03T17:48:48.164Z,101211.59
2022-08-03T17:51:34.862Z,101207.13
2022-08-03T17:54:19.767Z,101205.81
2022-08-03T17:57:22.762Z,101205.72
2022-08-03T18:00:25.632Z,101200.22
2022-08-03T18:03:21.015Z,101201.56
2022-08-03T18:06:11.370Z,101203.81
2022-08-03T18:08:56.036Z,101198.50
2022-08-03T18:11:35.750Z,101195.91
2022-08-03T18:14:16.576Z,101182.34
2022-08-03T18:17:06.476Z,101185.63
2022-08-03T18:20:02.611Z,101192.38
2022-08-03T18:22:30.775Z,101191.34
2022-08-03T18:25:00.556Z,101190.19
2022-08-03T18:27:42.853Z,101189.53
2022-08-03T18:30:16.189Z,101179.31
2022-08-03T18:33:01.325Z,101182.19
2022-08-03T18:35:53.264Z,101172.63
2022-08-03T18:38:23.786Z,101167.66
2022-08-03T18:40:52.702Z,101169.50
2022-08-03T18:43:21.827Z,101167.66
2022-08-03T18:46:33.928Z,101159.00
2022-08-03T18:49:30.256Z,101153.03
2022-08-03T18:52:37.547Z,101150.44
2022-08-03T18:55:20.575Z,101145.78
2022-08-03T18:57:56.736Z,101147.72
2022-08-03T19:03:41.438Z,101140.06
2022-08-03T19:06:20.653Z,101124.78
2022-08-03T19:08:56.957Z,101115.50
2022-08-03T19:12:12.671Z,101114.63
2022-08-03T19:14:55.712Z,101119.25
2022-08-03T19:17:29.249Z,101108.63
2022-08-03T19:20:01.398Z,101120.66
2022-08-03T19:22:31.762Z,101120.50
2022-08-03T19:25:03.364Z,101110.03
2022-08-03T19:27:33.037Z,101107.59
2022-08-03T19:30:14.070Z,101112.16
2022-08-03T19:32:51.756Z,101111.28
2022-08-03T19:35:51.399Z,101107.13
2022-08-03T19:38:10.076Z,101096.13
2022-08-03T19:40:43.276Z,101091.06
2022-08-03T19:43:33.095Z,101094.22
2022-08-03T19:46:16.636Z,101084.38
2022-08-03T19:48:56.076Z,101085.69
2022-08-03T19:52:01.057Z,101088.81
2022-08-03T19:54:16.880Z,101077.06
2022-08-03T19:56:59.595Z,101076.06
2022-08-03T19:59:35.177Z,101065.31
2022-08-03T20:02:09.182Z,101063.56
2022-08-03T20:04:54.747Z,101066.88
2022-08-03T20:07:25.025Z,101064.69
2022-08-03T20:09:56.697Z,101071.59
2022-08-03T20:12:29.117Z,101059.31
2022-08-03T20:14:59.558Z,101060.00
2022-08-03T20:17:54.048Z,101071.41
2022-08-03T20:20:24.075Z,101062.50
2022-08-03T20:22:57.680Z,101052.78
2022-08-03T20:25:48.879Z,101053.16
2022-08-03T20:28:34.318Z,101047.97
2022-08-03T20:31:02.934Z,101054.28
2022-08-03T20:33:45.847Z,101057.25
2022-08-03T20:36:18.983Z,101051.91
2022-08-03T20:38:49.022Z,101039.69
2022-08-03T20:41:18.709Z,101032.88
2022-08-03T20:43:51.081Z,101026.78
2022-08-03T20:46:32.035Z,101029.34
2022-08-03T20:49:10.091Z,101021.84
2022-08-03T20:51:49.050Z,101014.19
2022-08-03T20:54:22.829Z,101017.59
2022-08-03T20:56:59.580Z,101008.19
2022-08-03T20:59:47.364Z,101014.03
2022-08-03T21:05:11.116Z,101005.00
2022-08-03T21:08:05.392Z,101006.31
2022-08-03T21:10:42.056Z,101002.91
2022-08-03T21:13:00.965Z,101132.91
2022-08-03T21:13:12.390Z,101007.16
2022-08-03T21:13:18.948Z,100988.25
2022-08-03T21:16:06.164Z,100995.06
2022-08-03T21:18:46.880Z,100993.88
2022-08-03T21:21:18.800Z,101004.84
2022-08-03T21:23:53.529Z,101003.56
2022-08-03T21:26:23.888Z,101000.84
2022-08-03T21:28:54.322Z,101003.75
2022-08-03T21:31:25.057Z,101001.34
2022-08-03T21:34:06.801Z,101004.59
2022-08-03T21:36:38.637Z,100999.00
2022-08-03T21:39:09.766Z,100995.00
2022-08-03T21:41:40.862Z,100997.38
2022-08-03T21:44:11.218Z,100993.88
2022-08-03T21:46:42.157Z,100988.78
2022-08-03T21:50:04.303Z,100985.84
2022-08-03T21:52:06.475Z,100990.16
2022-08-03T21:54:42.164Z,100990.69
2022-08-03T21:57:27.082Z,100989.81
2022-08-03T22:00:07.891Z,100981.03
2022-08-03T22:02:39.970Z,100985.97
2022-08-03T22:05:13.664Z,100983.44
2022-08-03T22:07:45.497Z,100988.16
2022-08-03T22:10:14.241Z,100983.41
2022-08-03T22:12:43.537Z,100979.47
2022-08-03T22:15:14.805Z,100972.81
2022-08-03T22:17:55.596Z,100975.16
2022-08-03T22:20:26.638Z,100965.16
2022-08-03T22:22:57.849Z,100967.72
2022-08-03T22:25:34.817Z,100963.41
2022-08-03T22:28:14.403Z,100964.28
2022-08-03T22:30:43.988Z,100960.66
2022-08-03T22:33:13.062Z,100953.72
2022-08-03T22:35:47.769Z,100954.13
2022-08-03T22:38:17.452Z,100952.16
2022-08-03T22:40:48.202Z,100956.81
2022-08-03T22:43:16.712Z,100968.47
2022-08-03T22:46:09.954Z,100963.19
2022-08-03T22:48:40.809Z,100955.75
2022-08-03T22:51:10.801Z,100948.41
2022-08-03T22:53:40.695Z,100953.78
2022-08-03T22:56:09.641Z,100945.78
2022-08-03T22:58:38.163Z,100948.81
2022-08-03T23:01:12.557Z,100941.00
2022-08-03T23:04:00.591Z,100935.22
2022-08-03T23:06:35.846Z,100944.28
2022-08-03T23:09:12.819Z,100939.16
2022-08-03T23:11:46.125Z,100931.44
2022-08-03T23:14:17.669Z,100933.66
2022-08-03T23:16:48.077Z,100923.06
2022-08-03T23:19:25.384Z,100914.00
2022-08-03T23:22:02.351Z,100918.25
2022-08-03T23:24:36.890Z,100908.78
2022-08-03T23:27:06.618Z,100902.06
2022-08-03T23:29:40.222Z,100903.16
2022-08-03T23:32:08.962Z,100901.63
2022-08-03T23:34:58.398Z,100900.25
2022-08-03T23:37:27.949Z,100896.66
2022-08-03T23:39:58.232Z,100895.75
2022-08-03T23:42:27.601Z,100899.28
2022-08-03T23:44:59.499Z,100892.94
2022-08-03T23:47:46.771Z,100898.84
2022-08-03T23:50:15.917Z,100897.84
2022-08-03T23:53:05.772Z,100902.56
2022-08-03T23:55:42.888Z,100898.16
2022-08-03T23:58:35.702Z,100899.41
